Main page
METAR-TAF:

METAR-TAF

Airports :

Larnaca International Airport

Larnaca, Cyprus

latitude: 34-53N, longitude: 033-38E, elevation: 2 m

Current weather observation

The report was made 22 minutes ago, at 04:30 UTC
Wind 3 kt from the North/Northwest
Temperature 16°C
Humidity 88%
Pressure 1019 hPa
Visibility 10 km or more
Few clouds at a height of 4000 ft

METAR: LCLK 210430Z 33003KT 9999 FEW040 16/14 Q1019 NOSIG

Time: 06:52 (04:52 UTC)

Forecast

The report was made 5 hours and 22 minutes ago, at 23:30 UTC
Forecast valid from 21 at 00 UTC to 21 at 24 UTC
Wind 6 kt from the North/Northwest
Visibility 10 km or more
Few clouds at a height of 3000 ft
Becoming
from 21 at 08 UTC to 21 at 11 UTC
Wind 13 kt from the South/Southwest

TAF: LCLK 202330Z 2100/2124 33006KT 9999 FEW030 BECMG 2108/2111 21013KT

Weather observations and forecasts of more than 4000 airports (METAR and TAF reports).

The available stations are represented by yellow and red dots on the map.

Hover mouse over dot to see the name of the station.

Then click to see weather observations and forecasts.

To change the map : click on the green buttons with a black cross to zoom in, on the green button with a dash to zoom out, or on the green arrows for adjacent maps.


METAR-TAF: